Current Conditions
Clear
Conditions



Pressure
30.02 (inHG) - 1016.62 (mb)
Visibility

9.9 (miles) - 16.0 (km)
Temperature
73  °F
Temperature
66  °F
Dewpoint
78  %
 Humidity
Wind Speed
6  mph
5  kts
10  km/h
2.7  m/s
Wind Direction
N
45°
E
90°
135°
S
180°
225°
W
270°
315°
 110°

East South
East
Airport Data
KBLV
Scott AFB/Midamerica Airport
Metar :KBLV 162256Z 11005KT 10SM CLR 23/19 A3002 RMK SLPNO
Sun 16th May 17:56 pm
Raw Metar Info
Raw METAR is the most common format in the world for the transmission of observational weather data. It is highly standardized through the International Civil Aviation Organization (ICAO), which allows it to be understood throughout most of the world.
API Info
Data Provided by
https://www.checkwx.com/weather/KBLV

Aviation Weather providing METAR, TAF, AIRMET, SIGMET and OUTLOOK Weather Reports
© Info
CSS/SVG/PHP scripts were developed by weather34.com for use in the weather34 template © 2015-2021

Guide Info provided by Metar-Wikipedia